Time;durP1;ratioP1;P1;durP2;ratioP2;P2;SDS_P1;SDS_P2;PMS_P1;PMS_P2;Temp;Humidity;BMP_temperature;BMP_pressure;BME280_temperature;BME280_humidity;BME280_pressure;Samples;Min_cycle;Max_cycle;Signal;HPM_P1;HPM_P2
2022/01/06 00:00:57;;;;;;;19.00;13.70;;;;;;;11.16;57.35;100366.81;2568498;23;20222;-68
2022/01/06 00:01:57;;;;;;;12.93;10.73;;;;;;;11.21;57.14;100369.03;2569392;23;20462;-68
2022/01/06 00:02:58;;;;;;;15.13;11.50;;;;;;;11.26;57.25;100368.50;2570231;23;20411;-68
2022/01/06 00:03:58;;;;;;;12.63;10.03;;;;;;;11.31;56.84;100363.19;2570222;23;20152;-68
2022/01/06 00:04:59;;;;;;;14.67;10.97;;;;;;;10.96;57.01;100308.81;2570305;23;20475;-68
2022/01/06 00:06:06;;;;;;;13.03;10.90;;;;;;;11.18;57.03;100336.66;2569119;23;20230;-68
2022/01/06 00:07:07;;;;;;;11.73;9.10;;;;;;;11.29;56.51;100348.22;2569733;23;20129;-68
2022/01/06 00:08:07;;;;;;;10.93;8.73;;;;;;;11.47;56.11;100367.88;2570034;23;20872;-68
2022/01/06 00:09:09;;;;;;;10.93;8.40;;;;;;;10.88;56.23;100267.88;2570245;23;20623;-68
2022/01/06 00:10:13;;;;;;;9.97;7.93;;;;;;;11.10;55.89;100288.97;2569204;23;20149;-68
2022/01/06 00:11:14;;;;;;;12.17;8.07;;;;;;;11.18;55.56;100295.81;2570268;23;20390;-68
2022/01/06 00:12:17;;;;;;;11.10;8.00;;;;;;;11.25;55.32;100294.84;2569039;23;20418;-68
2022/01/06 00:13:25;;;;;;;23.27;18.37;;;;;;;11.73;55.29;100359.09;2569469;23;20971;-68
2022/01/06 00:14:54;;;;;;;11.27;9.57;;;;;;;11.30;55.33;100292.28;2570062;23;20891;-68
2022/01/06 00:16:12;;;;;;;11.60;7.67;;;;;;;11.72;54.94;100354.75;2569354;23;20896;-68
2022/01/06 00:18:34;;;;;;;12.67;8.57;;;;;;;11.88;54.88;100374.06;2569976;23;20392;-68
2022/01/06 00:23:38;;;;;;;10.67;8.23;;;;;;;11.61;53.88;100287.72;2570166;23;20364;-68
2022/01/06 00:24:39;;;;;;;9.83;7.60;;;;;;;12.17;53.86;100368.31;2570292;23;20833;-68
2022/01/06 00:25:39;;;;;;;10.77;6.97;;;;;;;11.67;53.68;100287.91;2570006;23;20742;-68
2022/01/06 00:26:40;;;;;;;7.27;4.90;;;;;;;12.34;53.06;100369.72;2570278;23;20542;-68
2022/01/06 00:27:41;;;;;;;8.17;5.13;;;;;;;11.92;53.13;100308.09;2569906;23;20175;-68
2022/01/06 00:28:41;;;;;;;7.57;5.30;;;;;;;12.38;52.97;100368.38;2569936;23;20148;-68
2022/01/06 00:29:42;;;;;;;7.40;5.90;;;;;;;12.46;53.02;100372.44;2569939;23;20156;-68
2022/01/06 00:30:43;;;;;;;8.97;6.07;;;;;;;12.52;52.80;100369.88;2570107;23;20360;-68
2022/01/06 00:31:43;;;;;;;8.37;5.77;;;;;;;12.54;52.74;100373.75;2570136;23;20777;-68
2022/01/06 00:32:44;;;;;;;7.57;5.70;;;;;;;12.51;52.42;100371.84;2569919;23;20152;-68
2022/01/06 00:33:44;;;;;;;8.37;4.87;;;;;;;12.68;52.30;100380.81;2569991;23;20157;-68
2022/01/06 00:34:45;;;;;;;7.77;5.10;;;;;;;12.51;52.28;100357.97;2569989;23;20195;-68
2022/01/06 00:35:46;;;;;;;8.07;5.10;;;;;;;12.53;51.87;100349.19;2569874;23;20165;-68
2022/01/06 00:36:46;;;;;;;9.20;6.37;;;;;;;12.55;52.29;100357.84;2570072;23;20239;-68
2022/01/06 00:37:47;;;;;;;7.10;5.10;;;;;;;12.33;52.02;100327.25;2569976;23;20154;-68
2022/01/06 00:38:47;;;;;;;9.00;5.83;;;;;;;12.53;52.44;100366.66;2570188;23;20150;-68
2022/01/06 00:39:48;;;;;;;7.27;5.20;;;;;;;12.73;51.96;100378.22;2569851;23;20214;-68
2022/01/06 00:40:48;;;;;;;11.20;8.07;;;;;;;11.85;52.67;100288.91;2570071;23;20181;-68
2022/01/06 00:41:49;;;;;;;7.37;5.87;;;;;;;12.61;52.25;100378.28;2569134;23;20159;-68
2022/01/06 00:42:49;;;;;;;9.07;6.57;;;;;;;12.56;52.73;100382.41;2569359;23;20218;-68
2022/01/06 00:43:49;;;;;;;7.93;5.23;;;;;;;11.95;52.23;100290.50;2570001;23;20152;-68
2022/01/06 00:44:50;;;;;;;12.37;7.73;;;;;;;12.57;52.60;100388.75;2570091;23;20152;-68
2022/01/06 00:45:50;;;;;;;9.00;5.67;;;;;;;12.55;52.09;100380.84;2570014;23;20602;-68
2022/01/06 00:46:52;;;;;;;8.37;4.97;;;;;;;12.55;52.38;100378.06;2570086;23;20151;-68
2022/01/06 00:47:52;;;;;;;7.07;5.03;;;;;;;12.07;52.05;100316.69;2569029;23;20183;-68
2022/01/06 00:48:53;;;;;;;7.47;4.23;;;;;;;12.57;52.10;100378.41;2569447;23;20390;-68
2022/01/06 00:49:53;;;;;;;7.60;5.53;;;;;;;12.19;52.11;100318.66;2569053;23;20198;-68
2022/01/06 00:50:54;;;;;;;12.27;9.30;;;;;;;12.65;52.26;100407.50;2569331;23;20159;-68
2022/01/06 00:51:55;;;;;;;6.73;4.60;;;;;;;12.52;51.95;100359.53;2570120;23;20281;-68
2022/01/06 00:52:55;;;;;;;7.77;4.60;;;;;;;12.30;51.42;100321.84;2569440;23;20169;-68
2022/01/06 00:53:56;;;;;;;8.13;4.53;;;;;;;12.65;51.31;100367.81;2569007;23;20552;-68
2022/01/06 00:54:56;;;;;;;7.70;5.47;;;;;;;12.35;51.72;100322.03;2570211;23;20213;-68
2022/01/06 00:55:57;;;;;;;9.43;6.20;;;;;;;12.49;52.00;100360.44;2569096;23;20163;-68
2022/01/06 00:56:58;;;;;;;6.73;5.03;;;;;;;12.71;52.06;100394.56;2569419;23;20174;-68
2022/01/06 00:57:59;;;;;;;6.37;3.80;;;;;;;12.68;51.62;100383.56;2569912;23;20551;-68
2022/01/06 00:58:59;;;;;;;6.87;4.43;;;;;;;12.68;51.52;100387.16;2570181;23;20226;-68
2022/01/06 01:00:00;;;;;;;8.23;5.27;;;;;;;12.28;51.57;100315.94;2569848;23;20387;-68
2022/01/06 01:01:00;;;;;;;8.20;4.57;;;;;;;12.81;51.19;100375.97;2569307;23;20154;-68
2022/01/06 01:02:01;;;;;;;5.97;3.90;;;;;;;12.22;51.05;100287.97;2569204;23;20175;-68
2022/01/06 01:03:01;;;;;;;8.23;3.90;;;;;;;12.95;50.72;100381.75;2570236;23;20604;-68
2022/01/06 01:04:02;;;;;;;9.17;6.30;;;;;;;13.01;51.09;100387.56;2569920;23;20170;-68
2022/01/06 01:05:03;;;;;;;6.20;4.93;;;;;;;12.77;50.94;100358.63;2570102;23;20215;-68
2022/01/06 01:06:03;;;;;;;7.27;4.60;;;;;;;11.98;50.68;100247.19;2569891;23;20236;-68
2022/01/06 01:07:04;;;;;;;6.80;4.87;;;;;;;12.39;51.00;100292.13;2570181;23;20383;-68
2022/01/06 01:08:05;;;;;;;7.30;5.13;;;;;;;12.96;51.35;100380.56;2570132;23;20150;-68
2022/01/06 01:09:05;;;;;;;7.20;4.70;;;;;;;12.91;51.54;100377.56;2569981;23;20239;-68
2022/01/06 01:10:06;;;;;;;7.90;4.30;;;;;;;12.89;51.38;100380.03;2569395;23;20176;-68
2022/01/06 01:11:07;;;;;;;7.43;4.30;;;;;;;12.89;51.00;100371.66;2569786;23;20231;-68
2022/01/06 01:12:08;;;;;;;6.60;4.07;;;;;;;12.45;50.96;100309.00;2569965;23;20152;-68
2022/01/06 01:13:11;;;;;;;5.70;3.80;;;;;;;12.50;51.06;100316.75;2570259;23;20152;-68
2022/01/06 01:14:25;;;;;;;6.87;4.50;;;;;;;12.36;50.78;100293.03;2569764;23;20432;-68
2022/01/06 01:15:27;;;;;;;6.43;4.10;;;;;;;12.92;50.84;100363.19;2570161;23;20377;-68
2022/01/06 01:16:31;;;;;;;7.53;4.23;;;;;;;11.82;50.60;100177.94;2569930;23;20469;-68
2022/01/06 01:17:33;;;;;;;6.27;4.00;;;;;;;13.01;50.95;100387.56;2581535;23;20955;-68
2022/01/06 01:18:34;;;;;;;7.27;5.43;;;;;;;13.00;51.29;100386.00;2581696;23;20385;-68
2022/01/06 01:19:35;;;;;;;8.63;6.60;;;;;;;12.87;51.41;100357.47;2570079;23;20384;-68
2022/01/06 01:20:36;;;;;;;6.33;4.70;;;;;;;12.78;51.70;100379.63;2569939;23;20183;-68
2022/01/06 01:21:36;;;;;;;8.03;5.30;;;;;;;12.63;51.97;100365.47;2569869;23;20219;-68
2022/01/06 01:22:37;;;;;;;7.77;4.40;;;;;;;12.72;51.55;100364.78;2570125;23;20379;-68
2022/01/06 01:23:37;;;;;;;7.67;4.93;;;;;;;12.66;51.58;100361.03;2569084;23;20626;-68
2022/01/06 01:24:38;;;;;;;9.00;5.23;;;;;;;12.61;51.95;100362.38;2569279;23;20224;-68
2022/01/06 01:25:38;;;;;;;6.07;4.30;;;;;;;12.16;51.84;100298.13;2570040;23;20538;-68
2022/01/06 01:26:39;;;;;;;6.33;4.27;;;;;;;12.27;52.04;100314.41;2569998;23;20223;-68
2022/01/06 01:27:42;;;;;;;6.87;4.33;;;;;;;12.65;51.59;100363.00;2569892;23;20547;-68
2022/01/06 01:28:45;;;;;;;8.27;4.67;;;;;;;12.51;51.92;100341.28;2569840;23;20149;-68
2022/01/06 01:29:57;;;;;;;7.50;4.20;;;;;;;12.06;51.80;100268.72;2569104;23;20431;-68
2022/01/06 01:31:19;;;;;;;6.47;3.80;;;;;;;12.72;51.79;100359.22;2569496;23;20359;-68
2022/01/06 01:32:27;;;;;;;6.60;4.10;;;;;;;12.77;51.82;100370.53;2569937;23;20425;-68
2022/01/06 01:33:30;;;;;;;5.80;3.67;;;;;;;12.83;51.50;100365.16;2569163;23;20438;-68
2022/01/06 01:34:31;;;;;;;5.87;3.23;;;;;;;13.00;50.95;100372.88;2569481;23;20438;-68
2022/01/06 01:35:32;;;;;;;5.47;3.63;;;;;;;12.41;50.94;100286.09;2570052;23;20385;-68
2022/01/06 01:36:32;;;;;;;6.57;3.50;;;;;;;12.86;51.26;100330.88;2569936;23;20153;-68
2022/01/06 01:37:34;;;;;;;7.57;3.77;;;;;;;13.08;50.88;100363.03;2569721;23;20388;-68
2022/01/06 01:38:36;;;;;;;6.00;3.53;;;;;;;13.10;51.02;100366.13;2570111;23;20569;-68
2022/01/06 01:39:37;;;;;;;5.03;3.43;;;;;;;13.08;50.93;100374.16;2569990;23;20391;-68
2022/01/06 01:40:38;;;;;;;5.80;3.20;;;;;;;13.09;50.77;100363.78;2569524;23;20376;-68
2022/01/06 01:41:38;;;;;;;7.17;3.67;;;;;;;13.08;50.96;100363.03;2581738;23;20188;-68
2022/01/06 01:42:41;;;;;;;4.97;3.23;;;;;;;13.07;51.08;100363.47;2581923;23;20383;-68
2022/01/06 01:43:41;;;;;;;5.87;3.13;;;;;;;13.10;51.06;100360.56;2581702;23;20155;-68
2022/01/06 01:44:44;;;;;;;7.07;3.37;;;;;;;13.14;50.95;100358.44;2581863;23;20414;-68
2022/01/06 01:45:46;;;;;;;6.80;3.77;;;;;;;12.53;50.92;100255.47;2570112;23;20399;-68
2022/01/06 01:46:59;;;;;;;5.33;3.97;;;;;;;13.09;51.22;100333.19;2570075;23;20439;-68
2022/01/06 01:48:05;;;;;;;6.03;3.67;;;;;;;13.02;50.95;100325.88;2570052;23;20370;-68
2022/01/06 01:49:17;;;;;;;5.17;3.50;;;;;;;12.13;51.26;100196.25;2570167;23;20368;-68
2022/01/06 01:50:18;;;;;;;5.87;3.67;;;;;;;13.22;51.01;100347.81;2569822;23;20400;-68
2022/01/06 01:51:18;;;;;;;7.27;3.70;;;;;;;13.23;50.73;100346.56;2570067;23;20463;-68
2022/01/06 01:52:19;;;;;;;7.17;4.13;;;;;;;13.23;50.96;100346.56;2569767;23;20381;-68
2022/01/06 01:53:20;;;;;;;5.60;3.47;;;;;;;12.85;50.60;100285.59;2570043;23;20150;-68
2022/01/06 01:54:20;;;;;;;5.90;3.60;;;;;;;13.24;50.87;100346.13;2569902;23;20266;-68
2022/01/06 01:55:28;;;;;;;5.27;3.23;;;;;;;13.27;50.58;100347.97;2570017;23;20146;-68
2022/01/06 01:56:30;;;;;;;6.33;3.40;;;;;;;13.21;50.95;100341.44;2570232;23;20161;-68
2022/01/06 01:57:30;;;;;;;7.90;4.10;;;;;;;12.11;50.81;100170.94;2570649;23;20773;-68
2022/01/06 01:58:33;;;;;;;5.17;3.63;;;;;;;13.16;50.97;100339.25;2570700;23;20464;-68
2022/01/06 01:59:34;;;;;;;7.63;3.80;;;;;;;13.22;51.09;100331.09;2570877;23;20151;-68
2022/01/06 02:00:35;;;;;;;5.77;3.40;;;;;;;12.32;50.81;100195.13;2569734;23;20451;-68
2022/01/06 02:01:35;;;;;;;5.40;3.57;;;;;;;12.68;50.77;100255.69;2570133;23;20217;-68
2022/01/06 02:02:36;;;;;;;6.83;3.40;;;;;;;12.68;50.77;100262.03;2570987;23;20157;-68
2022/01/06 02:03:36;;;;;;;5.33;3.23;;;;;;;13.21;50.83;100337.91;2569920;23;20592;-68
2022/01/06 02:04:37;;;;;;;7.33;3.70;;;;;;;12.65;50.82;100259.41;2570105;23;20224;-68
2022/01/06 02:05:37;;;;;;;6.73;3.37;;;;;;;13.23;50.88;100338.22;2570585;23;20148;-68
2022/01/06 02:06:38;;;;;;;6.30;3.47;;;;;;;13.25;50.83;100330.16;2570652;23;20150;-68
2022/01/06 02:07:41;;;;;;;5.53;3.20;;;;;;;13.19;50.90;100332.00;2569681;23;20176;-68
2022/01/06 02:08:41;;;;;;;7.13;3.60;;;;;;;13.22;50.78;100333.88;2570060;23;20159;-68
2022/01/06 02:09:42;;;;;;;7.57;3.67;;;;;;;13.19;51.00;100329.22;2570611;23;20404;-68
2022/01/06 02:10:42;;;;;;;6.40;3.23;;;;;;;13.17;51.11;100326.88;2570470;23;20264;-68
2022/01/06 02:11:43;;;;;;;5.83;3.80;;;;;;;12.94;51.10;100293.22;2570762;23;20582;-68
2022/01/06 02:12:44;;;;;;;5.10;3.37;;;;;;;13.26;51.02;100328.94;2569681;23;20164;-68
2022/01/06 02:13:49;;;;;;;8.03;4.13;;;;;;;12.68;50.81;100239.00;2569865;23;20151;-68
2022/01/06 02:14:50;;;;;;;4.90;3.57;;;;;;;13.30;50.79;100324.00;2570747;23;20480;-68
2022/01/06 02:15:51;;;;;;;5.27;3.43;;;;;;;13.33;50.69;100326.66;2570579;23;20386;-68
2022/01/06 02:16:54;;;;;;;9.60;4.07;;;;;;;13.36;50.95;100325.75;2570981;23;20395;-68
2022/01/06 02:17:54;;;;;;;5.60;3.63;;;;;;;12.38;50.80;100179.41;2570684;23;20180;-68
2022/01/06 02:18:55;;;;;;;4.37;3.10;;;;;;;13.16;51.41;100294.00;2570850;23;20379;-68
2022/01/06 02:20:05;;;;;;;5.90;3.40;;;;;;;13.29;51.01;100305.78;2570516;23;20552;-68
2022/01/06 02:21:06;;;;;;;5.50;2.90;;;;;;;13.29;51.33;100319.69;2570739;23;20220;-68
2022/01/06 02:22:06;;;;;;;4.73;3.17;;;;;;;13.17;51.11;100298.31;2570545;23;20381;-68
2022/01/06 02:23:07;;;;;;;5.97;3.80;;;;;;;13.24;51.32;100314.72;2570634;23;20147;-68
2022/01/06 02:24:07;;;;;;;6.50;3.63;;;;;;;13.16;51.15;100305.88;2570710;23;20179;-68
2022/01/06 02:25:19;;;;;;;6.13;3.40;;;;;;;13.15;51.44;100309.88;2570810;23;20145;-68
2022/01/06 02:26:20;;;;;;;5.77;3.40;;;;;;;13.15;51.56;100321.03;2569981;23;20140;-68
2022/01/06 02:27:21;;;;;;;4.80;3.40;;;;;;;12.68;51.23;100234.25;2569837;23;20780;-68
2022/01/06 02:28:25;;;;;;;7.27;3.77;;;;;;;12.71;51.04;100236.09;2570581;23;20702;-68
2022/01/06 02:29:25;;;;;;;5.80;3.13;;;;;;;12.74;51.43;100253.88;2569857;23;20573;-68
2022/01/06 02:30:26;;;;;;;5.77;3.40;;;;;;;13.22;51.25;100311.63;2569489;23;20380;-68
2022/01/06 02:31:27;;;;;;;5.23;3.67;;;;;;;13.23;51.39;100311.16;2582436;23;20612;-68
2022/01/06 02:32:28;;;;;;;6.20;3.13;;;;;;;13.25;50.86;100305.91;2582435;23;20623;-68
2022/01/06 02:33:28;;;;;;;5.33;3.30;;;;;;;13.28;51.30;100307.75;2570551;23;20387;-68
2022/01/06 02:34:29;;;;;;;6.33;3.70;;;;;;;13.27;51.36;100309.00;2570509;23;20178;-68
2022/01/06 02:35:31;;;;;;;5.50;3.20;;;;;;;13.33;50.83;100309.19;2570596;23;20152;-68
2022/01/06 02:36:31;;;;;;;4.30;3.20;;;;;;;13.34;50.83;100302.38;2570347;23;20184;-68
2022/01/06 02:37:32;;;;;;;7.00;3.20;;;;;;;13.32;50.97;100310.44;2570541;23;20368;-68
2022/01/06 02:38:34;;;;;;;5.90;3.70;;;;;;;13.00;50.54;100256.03;2570718;23;20602;-68
2022/01/06 02:39:35;;;;;;;5.70;3.40;;;;;;;12.92;50.59;100246.38;2570663;23;20155;-68
2022/01/06 02:40:36;;;;;;;5.57;3.30;;;;;;;13.28;50.82;100318.13;2570330;23;20385;-68
2022/01/06 02:41:36;;;;;;;6.57;3.73;;;;;;;12.88;50.68;100243.00;2569885;23;20243;-68
2022/01/06 02:42:46;;;;;;;4.30;3.17;;;;;;;13.37;50.33;100307.81;2569908;23;20300;-68
2022/01/06 02:43:49;;;;;;;5.53;3.27;;;;;;;13.04;50.71;100280.94;2570459;23;20495;-68
2022/01/06 02:44:50;;;;;;;6.50;3.70;;;;;;;12.61;50.42;100180.94;2570749;23;20385;-68
2022/01/06 02:45:51;;;;;;;7.40;3.50;;;;;;;12.99;50.46;100245.38;2570594;23;20378;-68
2022/01/06 02:46:53;;;;;;;4.60;3.40;;;;;;;12.56;50.13;100175.97;2569789;23;20599;-68
2022/01/06 02:47:54;;;;;;;5.57;3.50;;;;;;;13.39;50.34;100316.50;2569863;23;20376;-68
2022/01/06 02:48:55;;;;;;;5.93;3.53;;;;;;;12.98;50.19;100241.03;2570582;23;20388;-68
2022/01/06 02:49:55;;;;;;;4.67;3.47;;;;;;;13.50;50.40;100302.91;2570374;23;20423;-68
2022/01/06 02:50:56;;;;;;;6.30;3.50;;;;;;;13.54;50.14;100305.56;2570485;23;20208;-68
2022/01/06 02:51:57;;;;;;;5.47;3.90;;;;;;;13.43;50.07;100308.75;2570404;23;20154;-68
2022/01/06 02:52:57;;;;;;;5.50;3.47;;;;;;;13.18;50.32;100252.56;2570409;23;20149;-68
2022/01/06 02:53:58;;;;;;;5.10;3.60;;;;;;;12.67;50.16;100174.31;2570376;23;20153;-68
2022/01/06 02:54:58;;;;;;;5.17;3.37;;;;;;;13.12;49.96;100255.16;2570824;23;20604;-68
2022/01/06 02:56:00;;;;;;;7.27;3.40;;;;;;;13.53;50.20;100309.56;2570514;23;20237;-68
2022/01/06 02:57:03;;;;;;;6.17;3.53;;;;;;;12.73;50.33;100205.84;2570773;23;20588;-68
2022/01/06 02:58:03;;;;;;;6.77;3.60;;;;;;;13.38;50.26;100303.78;2570565;23;20377;-68
2022/01/06 02:59:04;;;;;;;4.63;3.43;;;;;;;13.00;50.13;100242.13;2570591;23;20627;-68
2022/01/06 03:00:07;;;;;;;5.77;3.40;;;;;;;13.47;50.24;100309.38;2570189;23;20210;-68
2022/01/06 03:01:08;;;;;;;7.70;4.03;;;;;;;13.41;50.42;100305.66;2570549;23;20149;-68
2022/01/06 03:02:08;;;;;;;5.17;3.63;;;;;;;13.43;50.21;100297.63;2570555;23;20371;-68
2022/01/06 03:03:09;;;;;;;5.30;3.67;;;;;;;13.10;50.34;100252.06;2569716;23;20153;-68
2022/01/06 03:04:11;;;;;;;5.73;3.30;;;;;;;13.26;50.23;100287.19;2569565;23;20230;-68
2022/01/06 03:05:13;;;;;;;4.97;3.53;;;;;;;13.13;50.42;100270.63;2582274;23;20145;-68
2022/01/06 03:06:14;;;;;;;5.73;3.80;;;;;;;13.41;50.29;100305.66;2570547;23;20372;-68
2022/01/06 03:07:14;;;;;;;4.77;3.40;;;;;;;12.70;50.39;100217.13;2570613;23;20897;-68
2022/01/06 03:08:16;;;;;;;5.53;3.80;;;;;;;12.81;50.91;100234.91;2570243;23;20171;-68
2022/01/06 03:09:25;;;;;;;6.80;3.70;;;;;;;12.88;50.79;100270.81;2570587;23;20149;-68
2022/01/06 03:10:27;;;;;;;5.63;3.60;;;;;;;12.82;50.88;100258.69;2570079;23;20461;-68
2022/01/06 03:11:29;;;;;;;5.27;3.30;;;;;;;13.12;51.03;100318.38;2570472;23;20360;-68
2022/01/06 03:12:34;;;;;;;7.40;3.60;;;;;;;13.02;51.43;100311.97;2570475;23;20714;-68
2022/01/06 03:13:53;;;;;;;6.27;4.20;;;;;;;13.00;51.52;100310.88;2570482;23;20426;-68
2022/01/06 03:14:54;;;;;;;7.90;3.80;;;;;;;12.16;51.54;100195.34;2570569;23;20436;-68
2022/01/06 03:15:54;;;;;;;6.07;4.00;;;;;;;12.85;51.57;100310.63;2570355;23;20395;-68
2022/01/06 03:16:55;;;;;;;4.80;3.60;;;;;;;12.80;51.95;100316.78;2570546;23;20173;-68
2022/01/06 03:17:56;;;;;;;7.13;4.10;;;;;;;12.73;52.08;100303.16;2570254;23;20164;-68
2022/01/06 03:18:57;;;;;;;5.80;4.17;;;;;;;12.52;52.04;100286.50;2570500;23;20160;-68
2022/01/06 03:19:57;;;;;;;8.70;5.60;;;;;;;12.79;51.96;100311.66;2570233;23;20385;-68
2022/01/06 03:20:58;;;;;;;8.30;5.00;;;;;;;12.77;51.94;100312.16;2570507;23;20161;-68
2022/01/06 03:21:58;;;;;;;7.13;5.03;;;;;;;12.72;51.98;100312.72;2570363;23;20150;-68
2022/01/06 03:22:59;;;;;;;7.47;5.07;;;;;;;12.62;52.05;100300.00;2570554;23;20227;-68
2022/01/06 03:23:59;;;;;;;6.03;4.33;;;;;;;12.70;51.99;100306.06;2570300;23;20155;-68
2022/01/06 03:25:00;;;;;;;8.53;4.77;;;;;;;12.62;52.36;100311.13;2570307;23;20148;-68
2022/01/06 03:26:01;;;;;;;7.90;4.60;;;;;;;12.27;52.33;100265.19;2570375;23;20203;-68
2022/01/06 03:27:01;;;;;;;5.97;4.00;;;;;;;12.27;52.27;100259.63;2570438;23;20372;-68
2022/01/06 03:28:02;;;;;;;6.27;4.30;;;;;;;12.59;52.11;100314.00;2570185;23;20163;-68
2022/01/06 03:29:02;;;;;;;7.00;4.13;;;;;;;12.62;52.36;100313.13;2570493;23;20500;-68
2022/01/06 03:30:04;;;;;;;7.77;4.63;;;;;;;12.65;52.28;100306.66;2569924;23;20150;-68
2022/01/06 03:31:05;;;;;;;5.57;3.90;;;;;;;12.17;51.95;100235.00;2570383;23;20150;-68
2022/01/06 03:32:05;;;;;;;5.60;4.23;;;;;;;12.47;51.78;100287.06;2569392;23;20904;-68
2022/01/06 03:33:06;;;;;;;5.73;4.23;;;;;;;12.69;51.58;100310.06;2569631;23;20153;-68
2022/01/06 03:34:08;;;;;;;5.47;3.87;;;;;;;12.63;51.67;100297.97;2570152;23;20157;-68
2022/01/06 03:35:12;;;;;;;6.17;3.93;;;;;;;12.72;51.52;100318.28;2570411;23;20153;-68
2022/01/06 03:36:12;;;;;;;6.23;4.07;;;;;;;12.67;51.82;100299.41;2569578;23;20395;-68
2022/01/06 03:37:14;;;;;;;7.67;4.13;;;;;;;12.20;51.94;100225.75;2569741;23;20403;-68
2022/01/06 03:38:14;;;;;;;5.73;4.30;;;;;;;12.71;52.13;100299.28;2570360;23;20145;-68
2022/01/06 03:39:15;;;;;;;5.57;4.20;;;;;;;11.95;51.66;100193.31;2570249;23;20468;-68
2022/01/06 03:40:16;;;;;;;7.03;4.17;;;;;;;12.71;52.04;100304.84;2569880;23;20148;-68
2022/01/06 03:41:16;;;;;;;5.63;4.20;;;;;;;11.69;51.64;100153.03;2570395;23;20145;-68
2022/01/06 03:42:17;;;;;;;5.20;4.37;;;;;;;12.72;51.89;100307.16;2570482;23;20145;-68
2022/01/06 03:43:17;;;;;;;7.63;4.70;;;;;;;12.58;51.53;100285.47;2570426;23;20176;-68
2022/01/06 03:44:18;;;;;;;6.67;4.27;;;;;;;12.67;51.59;100304.97;2570438;23;20150;-68
2022/01/06 03:45:19;;;;;;;7.47;5.00;;;;;;;12.65;51.91;100303.88;2570376;23;20172;-68
2022/01/06 03:46:20;;;;;;;8.97;4.67;;;;;;;12.67;51.65;100295.84;2569467;23;20154;-68
2022/01/06 03:47:20;;;;;;;6.37;4.20;;;;;;;12.67;52.03;100307.75;2569466;23;20386;-68
2022/01/06 03:48:21;;;;;;;6.20;4.23;;;;;;;12.04;51.88;100221.16;2570260;23;20559;-68
2022/01/06 03:49:22;;;;;;;7.27;4.50;;;;;;;12.55;51.91;100297.47;2570356;23;20232;-68
2022/01/06 03:50:22;;;;;;;6.43;4.67;;;;;;;12.63;51.98;100314.66;2570103;23;20220;-68
2022/01/06 03:51:24;;;;;;;7.03;4.30;;;;;;;12.57;52.19;100311.72;2570310;23;20317;-68
2022/01/06 03:52:24;;;;;;;6.63;4.20;;;;;;;12.58;52.28;100320.81;2570226;23;20176;-68
2022/01/06 03:53:25;;;;;;;5.27;4.00;;;;;;;11.94;52.46;100224.34;2570464;23;20383;-68
2022/01/06 03:54:26;;;;;;;7.20;4.17;;;;;;;11.79;52.15;100207.38;2570072;23;20258;-68
2022/01/06 03:55:26;;;;;;;7.13;4.60;;;;;;;12.52;52.58;100317.84;2581949;23;20180;-68
2022/01/06 03:56:27;;;;;;;7.27;4.97;;;;;;;12.52;52.65;100320.63;2581972;23;20438;-68
2022/01/06 03:57:27;;;;;;;9.80;5.10;;;;;;;12.42;52.51;100315.44;2570246;23;20240;-68
2022/01/06 03:58:27;;;;;;;8.67;4.70;;;;;;;12.49;52.76;100317.94;2570322;23;20457;-68
2022/01/06 03:59:28;;;;;;;7.37;5.00;;;;;;;12.49;52.86;100317.94;2569530;23;20183;-68
2022/01/06 04:00:28;;;;;;;9.27;5.07;;;;;;;12.41;52.98;100317.44;2569335;23;20230;-68
2022/01/06 04:01:29;;;;;;;8.23;4.70;;;;;;;12.04;52.94;100268.38;2570303;23;20172;-68
2022/01/06 04:02:29;;;;;;;6.83;4.80;;;;;;;12.40;53.20;100312.34;2570257;23;20212;-68
2022/01/06 04:03:30;;;;;;;7.57;4.63;;;;;;;12.27;53.24;100297.72;2570307;23;20156;-68
2022/01/06 04:04:31;;;;;;;6.90;4.90;;;;;;;12.35;53.14;100322.03;2569345;23;20194;-68
2022/01/06 04:05:33;;;;;;;7.27;4.47;;;;;;;12.01;53.12;100283.19;2569512;23;20231;-68
2022/01/06 04:06:33;;;;;;;6.33;4.10;;;;;;;11.61;53.34;100240.53;2570422;23;20494;-68
2022/01/06 04:07:35;;;;;;;7.60;4.73;;;;;;;11.92;53.88;100298.97;2570302;23;20376;-68
2022/01/06 04:08:36;;;;;;;8.13;5.17;;;;;;;11.94;54.00;100313.19;2570226;23;20433;-68
2022/01/06 04:09:36;;;;;;;7.30;5.10;;;;;;;11.83;54.45;100315.56;2569974;23;20373;-68
2022/01/06 04:10:37;;;;;;;8.00;4.73;;;;;;;11.40;53.37;100249.56;2568759;23;20633;-68
2022/01/06 04:11:37;;;;;;;7.63;4.70;;;;;;;11.94;53.42;100318.75;2569432;23;20173;-68
2022/01/06 04:12:39;;;;;;;8.43;4.83;;;;;;;11.97;53.82;100318.63;2569245;23;20157;-68
2022/01/06 04:13:40;;;;;;;8.30;5.00;;;;;;;12.01;53.68;100322.06;2569340;23;20179;-68
2022/01/06 04:14:40;;;;;;;8.03;4.73;;;;;;;12.01;53.68;100329.59;2581800;23;20437;-68
2022/01/06 04:15:41;;;;;;;7.90;4.90;;;;;;;12.00;54.14;100322.50;2569433;23;20159;-68
2022/01/06 04:16:41;;;;;;;8.90;5.00;;;;;;;11.57;53.95;100255.72;2570166;23;20235;-68
2022/01/06 04:17:42;;;;;;;11.07;5.87;;;;;;;11.89;54.49;100322.09;2569991;23;20741;-68
2022/01/06 04:18:44;;;;;;;10.00;5.80;;;;;;;11.59;54.41;100273.50;2570200;23;20149;-68
2022/01/06 04:19:44;;;;;;;9.30;5.70;;;;;;;11.80;54.57;100325.56;2569251;23;20390;-68
2022/01/06 04:20:45;;;;;;;10.30;5.83;;;;;;;11.87;54.69;100344.75;2569271;23;20374;-68
2022/01/06 04:21:45;;;;;;;8.60;5.80;;;;;;;11.88;54.78;100340.75;2569960;23;20159;-68
2022/01/06 04:22:46;;;;;;;7.93;5.20;;;;;;;11.39;54.83;100266.66;2569311;23;20184;-68
2022/01/06 04:23:49;;;;;;;8.73;5.90;;;;;;;11.87;54.91;100353.06;2569194;23;20153;-68
2022/01/06 04:24:50;;;;;;;11.40;7.47;;;;;;;11.13;55.41;100243.69;2570170;23;20172;-68
2022/01/06 04:25:50;;;;;;;10.03;7.50;;;;;;;11.64;56.23;100345.09;2570080;23;20379;-68
2022/01/06 04:26:51;;;;;;;10.93;6.90;;;;;;;10.64;56.33;100209.22;2570263;23;20661;-68
2022/01/06 04:27:51;;;;;;;10.33;8.00;;;;;;;10.76;56.91;100260.34;2569776;23;20149;-68
2022/01/06 04:28:52;;;;;;;10.93;8.37;;;;;;;10.64;57.07;100242.47;2570056;23;20153;-68
2022/01/06 04:29:52;;;;;;;14.20;10.87;;;;;;;11.27;57.16;100345.88;2569829;23;20223;-68
2022/01/06 04:30:53;;;;;;;17.20;14.17;;;;;;;11.00;57.34;100345.53;2569866;23;20684;-68
2022/01/06 04:31:54;;;;;;;17.37;13.47;;;;;;;10.64;57.82;100317.28;2569127;23;20728;-68
2022/01/06 04:32:54;;;;;;;15.87;12.97;;;;;;;9.64;57.73;100172.94;2569339;23;20153;-68
2022/01/06 04:33:54;;;;;;;17.53;12.90;;;;;;;10.18;57.95;100256.09;2569812;23;20603;-68
2022/01/06 04:34:55;;;;;;;15.83;12.63;;;;;;;10.85;57.98;100352.69;2581790;23;20277;-68
2022/01/06 04:35:55;;;;;;;18.10;13.53;;;;;;;10.75;58.35;100341.91;2581678;23;20155;-68
2022/01/06 04:36:58;;;;;;;17.73;13.77;;;;;;;9.87;58.73;100238.34;2570189;23;20230;-68
2022/01/06 04:37:59;;;;;;;16.97;14.30;;;;;;;10.49;58.93;100343.84;2569803;23;20152;-68
2022/01/06 04:38:59;;;;;;;19.17;14.50;;;;;;;10.53;59.13;100340.97;2569335;23;20387;-68
2022/01/06 04:40:00;;;;;;;17.97;12.97;;;;;;;10.62;59.02;100360.50;2568373;23;20595;-68
2022/01/06 04:41:00;;;;;;;16.70;14.00;;;;;;;10.61;59.00;100362.50;2570079;23;20230;-68
2022/01/06 04:42:01;;;;;;;19.00;13.40;;;;;;;10.57;59.13;100366.59;2569864;23;20205;-68
2022/01/06 04:43:01;;;;;;;16.80;12.87;;;;;;;9.98;59.27;100338.47;2569938;23;20619;-68
2022/01/06 04:44:02;;;;;;;18.23;13.90;;;;;;;10.05;59.38;100366.03;2570046;23;20155;-68
2022/01/06 04:45:03;;;;;;;18.70;13.23;;;;;;;10.04;59.98;100379.06;2569289;23;20163;-68
2022/01/06 04:46:04;;;;;;;18.70;13.90;;;;;;;9.54;59.57;100304.00;2569240;23;20148;-68
2022/01/06 04:47:04;;;;;;;17.40;13.67;;;;;;;9.77;60.12;100386.84;2570003;23;20589;-70
2022/01/06 04:48:05;;;;;;;19.53;14.93;;;;;;;9.46;60.51;100354.41;2569690;23;20594;-70
2022/01/06 04:49:05;;;;;;;18.80;15.00;;;;;;;9.77;60.45;100395.16;2569990;23;20216;-70
2022/01/06 04:50:06;;;;;;;18.77;14.80;;;;;;;9.80;60.36;100397.06;2569292;23;20257;-70
2022/01/06 04:51:08;;;;;;;18.33;14.83;;;;;;;9.60;60.32;100370.69;2569930;23;20144;-70
2022/01/06 04:52:08;;;;;;;18.87;15.00;;;;;;;9.55;61.03;100399.66;2570040;23;20549;-70